Time;durP1;ratioP1;P1;durP2;ratioP2;P2;SDS_P1;SDS_P2;PMS_P1;PMS_P2;Temp;Humidity;BMP_temperature;BMP_pressure;BME280_temperature;BME280_humidity;BME280_pressure;Samples;Min_cycle;Max_cycle;Signal;HPM_P1;HPM_P2
2021/01/31 00:01:09;;;;;;;21.90;18.63;;;;;;;-0.33;64.29;100551.19;6131299;28;20283;-61
2021/01/31 00:04:30;;;;;;;27.17;22.67;;;;;;;-0.76;65.51;100554.94;6124345;28;20227;-60
2021/01/31 00:07:51;;;;;;;28.80;24.03;;;;;;;-1.27;66.96;100560.03;6130158;28;20254;-60
2021/01/31 00:11:12;;;;;;;29.47;25.90;;;;;;;-1.25;66.90;100560.97;6134639;28;20691;-60
2021/01/31 00:14:33;;;;;;;32.83;27.17;;;;;;;-1.62;68.33;100560.53;6132473;28;20322;-60
2021/01/31 00:17:53;;;;;;;41.60;27.70;;;;;;;-1.70;68.40;100558.53;6130056;28;20231;-62
2021/01/31 00:21:13;;;;;;;41.80;29.57;;;;;;;-1.98;69.19;100557.47;6132267;28;20243;-61
2021/01/31 00:24:33;;;;;;;42.47;28.20;;;;;;;-1.84;69.06;100569.09;6130377;28;20234;-60
2021/01/31 00:27:55;;;;;;;43.00;28.90;;;;;;;-1.85;69.02;100563.94;6132158;28;20265;-60
2021/01/31 00:31:16;;;;;;;40.90;27.60;;;;;;;-1.76;68.74;100568.50;6129091;28;20235;-61
2021/01/31 00:34:36;;;;;;;39.30;28.47;;;;;;;-1.58;67.62;100571.72;6131975;28;20504;-60
2021/01/31 00:37:57;;;;;;;31.83;25.37;;;;;;;-1.50;66.79;100572.00;6129605;28;20235;-60
2021/01/31 00:41:17;;;;;;;37.43;26.20;;;;;;;-1.36;66.46;100562.28;6133335;28;20231;-61
2021/01/31 00:44:39;;;;;;;29.43;23.50;;;;;;;-1.43;66.29;100567.16;6129689;28;20326;-61
2021/01/31 00:47:59;;;;;;;35.23;23.40;;;;;;;-1.25;65.46;100568.63;6133277;28;21007;-61
2021/01/31 00:51:20;;;;;;;31.60;24.20;;;;;;;-1.35;65.02;100558.91;6124482;28;20263;-61
2021/01/31 00:54:41;;;;;;;29.80;23.30;;;;;;;-1.29;64.78;100552.31;6127083;28;20247;-61
2021/01/31 00:58:02;;;;;;;29.87;22.90;;;;;;;-1.48;65.57;100561.00;6129132;28;20227;-61
2021/01/31 01:01:24;;;;;;;30.50;22.03;;;;;;;-1.69;66.10;100561.09;6143481;28;20238;-60
2021/01/31 01:04:47;;;;;;;31.43;22.07;;;;;;;-1.50;65.78;100562.66;6131154;28;20231;-61
2021/01/31 01:08:08;;;;;;;34.03;26.53;;;;;;;-1.24;64.77;100555.03;6128973;28;20258;-61
2021/01/31 01:11:28;;;;;;;31.63;24.17;;;;;;;-1.17;64.28;100556.13;6125829;28;20338;-61
2021/01/31 01:14:49;;;;;;;30.40;22.97;;;;;;;-1.43;64.52;100556.94;6132755;28;20232;-60
2021/01/31 01:18:10;;;;;;;34.93;24.47;;;;;;;-1.28;64.77;100558.28;6128363;28;20219;-62
2021/01/31 01:21:32;;;;;;;31.77;23.67;;;;;;;-1.41;64.11;100567.22;6125127;28;20613;-61
2021/01/31 01:24:52;;;;;;;33.37;23.70;;;;;;;-1.47;64.58;100570.44;6126093;28;20555;-61
2021/01/31 01:28:14;;;;;;;36.43;25.70;;;;;;;-1.91;65.56;100546.69;6121768;28;20349;-60
2021/01/31 01:31:34;;;;;;;32.40;26.43;;;;;;;-2.06;66.14;100557.19;6129289;28;20273;-61
2021/01/31 01:34:55;;;;;;;32.07;25.07;;;;;;;-1.92;65.77;100565.41;6113751;28;20236;-59
2021/01/31 01:38:16;;;;;;;32.00;24.87;;;;;;;-2.04;65.91;100572.56;6130889;28;20362;-60
2021/01/31 01:41:38;;;;;;;36.57;25.57;;;;;;;-2.30;67.09;100576.69;6138637;28;20219;-61
2021/01/31 01:44:58;;;;;;;35.30;24.97;;;;;;;-1.93;65.80;100571.31;6131664;28;20235;-61
2021/01/31 01:48:20;;;;;;;35.00;24.40;;;;;;;-2.08;65.84;100563.94;6137715;28;20250;-61
2021/01/31 01:51:45;;;;;;;33.40;24.97;;;;;;;-2.80;68.41;100569.63;6136814;28;20231;-61
2021/01/31 01:55:09;;;;;;;33.07;26.33;;;;;;;-2.51;67.47;100558.84;6130554;28;20231;-60
2021/01/31 01:58:30;;;;;;;34.00;25.20;;;;;;;-2.51;67.46;100557.16;6138237;28;20258;-66
2021/01/31 02:02:01;;;;;;;36.20;25.10;;;;;;;-2.48;67.06;100558.97;6147530;28;20239;-60
2021/01/31 02:05:22;;;;;;;31.20;22.70;;;;;;;-2.27;67.28;100558.94;6138892;28;20230;-61
2021/01/31 02:08:44;;;;;;;30.70;22.33;;;;;;;-2.05;66.75;100552.97;6139382;28;20707;-61
2021/01/31 02:12:07;;;;;;;29.67;23.90;;;;;;;-2.08;66.04;100546.06;6139762;28;20231;-61
2021/01/31 02:15:29;;;;;;;26.93;21.87;;;;;;;-2.13;66.57;100554.34;6139356;28;20230;-60
2021/01/31 02:18:58;;;;;;;34.70;23.57;;;;;;;-2.37;66.89;100562.81;6140368;28;21451;-60
2021/01/31 02:22:52;;;;;;;31.27;23.70;;;;;;;-2.72;68.97;100569.91;6138701;28;20235;-61
2021/01/31 02:26:15;;;;;;;29.83;21.93;;;;;;;-2.42;68.07;100564.34;6140696;28;20318;-62
2021/01/31 02:30:00;;;;;;;34.93;22.77;;;;;;;-2.22;67.48;100562.53;6145450;28;20234;-62
2021/01/31 02:33:42;;;;;;;45.40;24.37;;;;;;;-2.15;66.39;100561.09;6137961;28;20266;-60
2021/01/31 02:37:10;;;;;;;35.77;24.10;;;;;;;-2.40;67.38;100552.50;6134684;28;20325;-60
2021/01/31 02:40:38;;;;;;;40.17;24.37;;;;;;;-2.27;67.98;100554.72;6149690;28;20230;-59
2021/01/31 02:44:05;;;;;;;50.10;26.90;;;;;;;-2.48;67.80;100559.84;6140638;28;20224;-60
2021/01/31 02:47:27;;;;;;;41.43;24.93;;;;;;;-2.49;68.68;100562.34;6142736;28;21678;-59
2021/01/31 02:50:53;;;;;;;77.07;26.47;;;;;;;-2.83;70.24;100560.97;6143423;28;20235;-61
2021/01/31 02:54:18;;;;;;;78.80;26.93;;;;;;;-2.78;69.63;100567.13;6139893;28;20503;-61
2021/01/31 02:57:44;;;;;;;73.00;29.60;;;;;;;-2.54;69.05;100553.63;6151663;28;20234;-60
2021/01/31 03:01:10;;;;;;;58.33;27.07;;;;;;;-2.54;69.87;100558.72;6138697;28;20506;-60
2021/01/31 03:04:36;;;;;;;61.63;27.83;;;;;;;-2.97;71.52;100553.66;6143700;28;20247;-60
2021/01/31 03:08:05;;;;;;;39.87;24.33;;;;;;;-2.52;70.22;100552.00;6143615;28;20272;-61
2021/01/31 03:11:34;;;;;;;36.40;25.23;;;;;;;-2.18;68.44;100544.84;6151077;28;20231;-60
2021/01/31 03:14:59;;;;;;;45.63;28.43;;;;;;;-2.46;69.25;100535.28;6138516;28;20243;-61
2021/01/31 03:18:24;;;;;;;45.13;27.40;;;;;;;-2.52;69.32;100539.25;6131518;28;20231;-61
2021/01/31 03:21:50;;;;;;;45.90;25.40;;;;;;;-2.38;68.73;100541.53;6141461;28;20235;-61
2021/01/31 03:25:19;;;;;;;50.80;26.40;;;;;;;-2.98;70.66;100546.78;6134624;28;20238;-61
2021/01/31 03:28:40;;;;;;;47.37;26.73;;;;;;;-3.34;73.33;100535.06;6147015;28;20227;-60
2021/01/31 03:32:06;;;;;;;33.20;23.90;;;;;;;-3.30;72.28;100531.84;6136162;28;20243;-61
2021/01/31 03:35:32;;;;;;;52.87;30.77;;;;;;;-3.24;71.72;100534.66;6129985;28;20431;-60
2021/01/31 03:38:53;;;;;;;45.17;27.57;;;;;;;-3.13;71.08;100538.50;6146354;28;20227;-60
2021/01/31 03:42:14;;;;;;;45.27;27.97;;;;;;;-2.92;70.79;100532.56;6148641;28;20239;-61
2021/01/31 03:45:43;;;;;;;42.93;26.70;;;;;;;-3.12;71.04;100527.53;6135223;28;20220;-61
2021/01/31 03:49:08;;;;;;;41.27;28.27;;;;;;;-3.42;72.47;100533.06;6129175;28;20242;-61
2021/01/31 03:52:30;;;;;;;38.70;26.23;;;;;;;-3.55;73.05;100530.78;6128049;28;20239;-61
2021/01/31 03:55:51;;;;;;;38.23;27.00;;;;;;;-3.53;73.03;100528.31;6121103;28;20235;-61
2021/01/31 03:59:18;;;;;;;39.80;28.07;;;;;;;-3.23;71.58;100532.16;6119658;28;20244;-60
2021/01/31 04:02:43;;;;;;;35.70;26.20;;;;;;;-3.10;70.72;100522.47;6125642;28;20492;-60
2021/01/31 04:06:11;;;;;;;37.87;26.73;;;;;;;-3.18;71.27;100530.69;6132719;28;20566;-61
2021/01/31 04:09:33;;;;;;;36.93;24.63;;;;;;;-3.49;72.13;100528.53;6126696;28;20234;-61
2021/01/31 04:12:57;;;;;;;35.37;24.37;;;;;;;-3.45;71.89;100525.31;6139834;28;20577;-61
2021/01/31 04:16:18;;;;;;;33.43;23.40;;;;;;;-3.26;70.69;100526.06;6141595;28;20330;-60
2021/01/31 04:19:38;;;;;;;35.53;23.97;;;;;;;-3.59;72.03;100523.81;6135376;28;20230;-60
2021/01/31 04:22:59;;;;;;;36.97;25.27;;;;;;;-3.64;72.52;100520.22;6140946;28;20234;-60
2021/01/31 04:26:19;;;;;;;38.57;25.53;;;;;;;-3.57;71.82;100522.22;6138504;28;20648;-60
2021/01/31 04:29:40;;;;;;;33.87;23.33;;;;;;;-3.44;70.42;100526.16;6138071;28;20809;-60
2021/01/31 04:33:01;;;;;;;37.37;25.67;;;;;;;-3.40;69.36;100528.03;6131066;28;20513;-59
2021/01/31 04:36:23;;;;;;;34.80;24.33;;;;;;;-3.64;68.94;100520.22;6142686;28;20228;-58
2021/01/31 04:39:44;;;;;;;30.57;20.97;;;;;;;-3.33;68.62;100522.41;6138517;28;20331;-60
2021/01/31 04:43:09;;;;;;;28.27;22.13;;;;;;;-3.45;67.47;100512.56;6131453;28;20227;-61
2021/01/31 04:46:39;;;;;;;31.63;23.27;;;;;;;-3.08;66.02;100514.13;6138275;28;20617;-60
2021/01/31 04:50:12;;;;;;;30.73;22.63;;;;;;;-3.31;66.98;100510.59;6137093;28;20243;-60
2021/01/31 04:54:08;;;;;;;25.23;20.83;;;;;;;-3.05;66.09;100509.13;6139336;28;20239;-60
2021/01/31 04:57:36;;;;;;;27.23;22.30;;;;;;;-3.37;65.26;100512.91;6143313;28;20249;-60
2021/01/31 05:01:00;;;;;;;27.00;21.50;;;;;;;-3.49;66.76;100503.06;6143394;28;20519;-59
2021/01/31 05:04:23;;;;;;;32.20;23.60;;;;;;;-3.20;66.31;100508.50;6149302;28;20226;-60
2021/01/31 05:07:51;;;;;;;32.50;22.10;;;;;;;-3.48;65.17;100504.78;6143941;28;20601;-59
2021/01/31 05:11:21;;;;;;;25.70;21.03;;;;;;;-3.59;65.68;100503.47;6139617;28;20329;-61
2021/01/31 05:14:53;;;;;;;29.43;24.47;;;;;;;-3.78;66.75;100511.97;6138131;28;20516;-61
2021/01/31 05:18:16;;;;;;;25.93;22.17;;;;;;;-3.50;65.28;100519.13;6142541;28;20246;-61
2021/01/31 05:21:36;;;;;;;31.67;24.40;;;;;;;-3.62;65.16;100523.72;6130633;28;20317;-61
2021/01/31 05:24:57;;;;;;;32.47;24.37;;;;;;;-4.24;67.28;100513.34;6146010;28;20231;-59
2021/01/31 05:28:21;;;;;;;29.50;22.50;;;;;;;-4.47;68.28;100514.81;6140999;28;20235;-61
2021/01/31 05:31:52;;;;;;;32.00;24.20;;;;;;;-4.60;67.68;100515.91;6139591;28;20255;-61
2021/01/31 05:35:22;;;;;;;30.77;22.20;;;;;;;-4.47;67.38;100526.66;6138333;28;20243;-61
2021/01/31 05:38:45;;;;;;;34.23;22.47;;;;;;;-4.40;66.78;100523.59;6142716;28;20234;-60
2021/01/31 05:42:13;;;;;;;25.27;21.00;;;;;;;-4.50;67.77;100522.28;6137010;28;20673;-60
2021/01/31 05:45:37;;;;;;;32.07;23.53;;;;;;;-4.30;66.92;100519.81;6138228;28;20263;-61
2021/01/31 05:48:58;;;;;;;29.50;22.30;;;;;;;-3.85;65.26;100526.09;6135790;28;20239;-60
2021/01/31 05:52:31;;;;;;;23.53;19.07;;;;;;;-4.20;64.45;100533.03;6125681;28;20231;-60
2021/01/31 05:55:52;;;;;;;28.27;21.20;;;;;;;-3.98;64.08;100536.53;6142397;28;20231;-60
2021/01/31 05:59:15;;;;;;;26.13;19.63;;;;;;;-3.80;63.78;100529.75;6135579;28;20231;-61
2021/01/31 06:02:35;;;;;;;27.90;21.17;;;;;;;-3.67;62.19;100535.34;6138364;28;20235;-60
2021/01/31 06:06:11;;;;;;;25.27;20.00;;;;;;;-3.68;62.62;100538.69;6140232;28;20575;-60
2021/01/31 06:09:37;;;;;;;29.83;21.33;;;;;;;-3.60;61.77;100539.91;6126984;28;20231;-61
2021/01/31 06:13:08;;;;;;;28.20;20.47;;;;;;;-3.48;60.79;100544.66;6138730;28;20622;-60
2021/01/31 06:16:30;;;;;;;25.90;21.27;;;;;;;-3.53;61.70;100538.50;6127426;28;20247;-62
2021/01/31 06:19:57;;;;;;;29.27;20.37;;;;;;;-3.63;61.37;100537.22;6143107;28;20235;-60
2021/01/31 06:23:20;;;;;;;26.93;19.83;;;;;;;-4.75;63.87;100523.69;6137500;28;20235;-59
2021/01/31 06:26:41;;;;;;;25.60;19.73;;;;;;;-4.33;64.13;100540.03;6137821;28;20236;-63
2021/01/31 06:30:12;;;;;;;27.20;19.57;;;;;;;-3.78;62.11;100543.41;6135110;28;20502;-59
2021/01/31 06:33:34;;;;;;;26.40;18.60;;;;;;;-3.49;61.86;100541.25;6138346;28;20231;-61
2021/01/31 06:37:06;;;;;;;22.63;18.97;;;;;;;-3.53;61.96;100541.91;6139826;28;20254;-61
2021/01/31 06:40:37;;;;;;;24.47;19.80;;;;;;;-3.52;60.20;100547.91;6138345;28;20317;-60
2021/01/31 06:44:05;;;;;;;24.47;18.40;;;;;;;-3.55;61.53;100556.25;6138353;28;20329;-59
2021/01/31 06:47:47;;;;;;;22.37;19.30;;;;;;;-3.93;61.77;100541.84;6139668;28;20229;-59
2021/01/31 06:51:31;;;;;;;25.70;19.60;;;;;;;-4.40;64.08;100549.00;6138472;28;21285;-60
2021/01/31 06:55:09;;;;;;;29.67;20.13;;;;;;;-4.04;63.96;100541.34;6150607;28;20235;-60
2021/01/31 06:59:03;;;;;;;25.00;18.27;;;;;;;-4.12;64.67;100545.22;6135366;28;20493;-60
2021/01/31 07:02:52;;;;;;;26.97;19.13;;;;;;;-3.91;63.25;100540.25;6135286;28;20235;-61
2021/01/31 07:06:28;;;;;;;25.17;18.27;;;;;;;-4.06;64.35;100538.72;6133783;28;20235;-61
2021/01/31 07:10:07;;;;;;;27.93;18.87;;;;;;;-3.83;63.10;100534.69;6137970;28;20519;-59
2021/01/31 07:13:52;;;;;;;22.77;18.03;;;;;;;-3.54;63.16;100549.50;6135063;28;20271;-58
2021/01/31 07:17:35;;;;;;;28.23;20.13;;;;;;;-3.78;64.31;100558.66;6137793;28;20231;-61
2021/01/31 07:20:58;;;;;;;24.40;20.00;;;;;;;-3.10;62.79;100561.59;6137003;28;20232;-61
2021/01/31 07:24:27;;;;;;;30.03;20.47;;;;;;;-2.76;62.25;100573.16;6131672;28;20597;-60
2021/01/31 07:27:53;;;;;;;26.40;19.37;;;;;;;-3.13;62.40;100571.63;6135668;28;20246;-60
2021/01/31 07:31:17;;;;;;;26.23;18.80;;;;;;;-3.50;65.11;100572.59;6138115;28;20472;-61
2021/01/31 07:34:43;;;;;;;27.00;20.13;;;;;;;-3.43;64.61;100564.44;6138524;28;20447;-59
2021/01/31 07:38:10;;;;;;;28.60;19.73;;;;;;;-3.96;67.01;100565.47;6131211;28;20239;-60
2021/01/31 07:41:34;;;;;;;24.93;19.73;;;;;;;-4.24;68.95;100559.13;6128536;28;20498;-60
2021/01/31 07:45:00;;;;;;;23.63;19.20;;;;;;;-3.85;68.91;100556.66;6136832;28;20319;-60
2021/01/31 07:48:53;;;;;;;26.50;18.43;;;;;;;-3.56;68.96;100569.78;6131039;28;20235;-60
2021/01/31 07:52:15;;;;;;;27.33;19.40;;;;;;;-3.25;67.99;100561.81;6122966;28;20255;-60
2021/01/31 07:55:41;;;;;;;27.20;18.50;;;;;;;-2.99;67.29;100559.47;6122057;28;20246;-60
2021/01/31 07:59:26;;;;;;;25.20;18.90;;;;;;;-2.92;68.37;100561.47;6122624;28;20231;-61
2021/01/31 08:02:52;;;;;;;27.93;17.43;;;;;;;-2.65;67.48;100561.72;6129713;28;20235;-61
2021/01/31 08:06:39;;;;;;;19.23;13.37;;;;;;;-2.86;69.18;100555.75;6121356;28;20231;-60
2021/01/31 08:10:00;;;;;;;19.33;12.37;;;;;;;-2.80;69.61;100551.78;6123260;28;20266;-59
2021/01/31 08:13:42;;;;;;;18.43;12.80;;;;;;;-1.99;67.05;100558.31;6134817;28;20242;-60
2021/01/31 08:17:03;;;;;;;17.33;12.10;;;;;;;-1.38;64.58;100557.09;6135921;28;20237;-60
2021/01/31 08:20:39;;;;;;;16.73;12.57;;;;;;;-1.58;64.75;100561.50;6135030;28;20258;-60
2021/01/31 08:24:00;;;;;;;16.60;11.93;;;;;;;-1.70;64.93;100564.50;6132771;28;20497;-60
2021/01/31 08:27:46;;;;;;;14.10;10.67;;;;;;;-1.81;66.12;100556.44;6134420;28;20415;-60
2021/01/31 08:31:12;;;;;;;13.97;10.07;;;;;;;-1.67;65.99;100563.72;6135981;28;20235;-59
2021/01/31 08:35:17;;;;;;;12.47;10.40;;;;;;;-1.36;64.40;100567.38;6128091;28;20560;-61
2021/01/31 08:38:45;;;;;;;13.57;10.23;;;;;;;-1.00;63.50;100570.34;6141805;28;20227;-61
2021/01/31 08:42:10;;;;;;;14.30;10.10;;;;;;;-0.27;60.90;100576.09;6135469;28;20257;-61
2021/01/31 08:45:42;;;;;;;13.68;12.27;;;;;;;-0.13;59.49;100568.84;6127589;28;21125;-61
2021/01/31 08:49:10;;;;;;;15.73;11.67;;;;;;;0.17;58.48;100569.75;6131340;28;20251;-62
2021/01/31 08:52:31;;;;;;;12.23;9.23;;;;;;;0.49;57.68;100571.50;6126267;28;20238;-61
2021/01/31 08:55:52;;;;;;;16.03;9.60;;;;;;;1.22;55.28;100564.84;6152717;28;20605;-61
2021/01/31 08:59:14;;;;;;;15.60;10.67;;;;;;;1.61;55.07;100565.78;6137170;28;20227;-61
2021/01/31 09:02:35;;;;;;;11.87;9.70;;;;;;;2.21;52.99;100555.16;6150110;28;20230;-60
2021/01/31 09:05:58;;;;;;;12.63;9.60;;;;;;;2.70;50.82;100558.69;6151525;28;20234;-59
2021/01/31 09:09:24;;;;;;;11.40;8.93;;;;;;;2.76;50.08;100545.06;6137610;28;20239;-61
2021/01/31 09:12:44;;;;;;;8.90;7.73;;;;;;;2.55;51.29;100542.97;6140937;28;20223;-60
2021/01/31 09:16:17;;;;;;;12.47;9.03;;;;;;;0.74;56.41;100555.97;6143315;28;20243;-60
2021/01/31 09:19:39;;;;;;;11.80;9.97;;;;;;;0.24;58.57;100547.75;6141767;28;20234;-61
2021/01/31 09:23:05;;;;;;;12.47;11.17;;;;;;;0.61;57.33;100553.03;6142270;28;20231;-60
2021/01/31 09:26:28;;;;;;;11.67;10.33;;;;;;;-0.19;59.07;100554.19;6144805;28;20230;-61
2021/01/31 09:29:55;;;;;;;12.43;9.80;;;;;;;-0.12;59.26;100550.97;6140869;28;20325;-60
2021/01/31 09:33:23;;;;;;;11.93;9.97;;;;;;;1.21;55.55;100558.00;6142795;28;20228;-62
2021/01/31 09:36:43;;;;;;;13.03;10.47;;;;;;;6.62;42.34;100538.00;6143996;28;20235;-61
2021/01/31 09:40:08;;;;;;;11.20;9.93;;;;;;;7.00;40.36;100539.78;6139590;28;20235;-61
2021/01/31 09:43:32;;;;;;;13.33;11.13;;;;;;;6.20;41.53;100542.13;6132032;28;20235;-60
2021/01/31 09:46:52;;;;;;;11.30;10.13;;;;;;;10.03;33.35;100535.72;6133233;28;20239;-61
2021/01/31 09:50:14;;;;;;;9.70;8.70;;;;;;;6.84;38.45;100536.31;6127240;28;20507;-60
2021/01/31 09:53:37;;;;;;;13.40;10.07;;;;;;;6.19;40.93;100537.84;6129994;28;20647;-61
2021/01/31 09:57:00;;;;;;;12.30;10.10;;;;;;;5.90;42.13;100533.34;6127283;28;20318;-58
2021/01/31 10:00:28;;;;;;;11.90;10.10;;;;;;;7.70;38.50;100536.31;6124280;28;20227;-61
2021/01/31 10:03:55;;;;;;;12.97;11.60;;;;;;;6.30;41.43;100552.53;6127025;28;20250;-60
2021/01/31 10:07:28;;;;;;;11.33;10.13;;;;;;;6.34;40.30;100556.00;6127012;28;20235;-62
2021/01/31 10:10:48;;;;;;;11.90;10.03;;;;;;;6.48;40.78;100559.50;6128974;28;21811;-61
2021/01/31 10:14:10;;;;;;;11.43;9.90;;;;;;;6.56;40.34;100556.94;6124469;28;20231;-60
2021/01/31 10:17:40;;;;;;;11.10;9.90;;;;;;;7.03;39.70;100553.59;6117932;28;20258;-60
2021/01/31 10:21:28;;;;;;;12.00;10.47;;;;;;;5.40;42.89;100565.72;6121454;28;20226;-61
2021/01/31 10:24:49;;;;;;;14.23;10.70;;;;;;;5.61;43.16;100562.44;6128945;28;20262;-61
2021/01/31 10:28:12;;;;;;;13.13;11.30;;;;;;;5.17;44.43;100569.84;6139693;28;20231;-62
2021/01/31 10:31:34;;;;;;;13.40;10.70;;;;;;;2.50;49.78;100566.03;6135785;28;20508;-59
2021/01/31 10:34:56;;;;;;;13.90;11.67;;;;;;;1.83;52.32;100565.47;6143581;28;20239;-61
2021/01/31 10:38:29;;;;;;;13.67;11.70;;;;;;;2.62;50.94;100561.94;6139027;28;20231;-61
2021/01/31 10:41:50;;;;;;;13.07;11.57;;;;;;;1.75;54.17;100570.41;6133001;28;20642;-59
2021/01/31 10:45:13;;;;;;;14.43;12.13;;;;;;;1.87;53.78;100569.81;6135970;28;20243;-61
2021/01/31 10:48:33;;;;;;;14.33;11.67;;;;;;;6.43;42.86;100553.44;6145793;28;20604;-62
2021/01/31 10:51:55;;;;;;;12.60;10.93;;;;;;;7.41;38.93;100538.94;6140940;28;20244;-60
2021/01/31 10:55:15;;;;;;;12.97;10.43;;;;;;;8.01;38.20;100537.09;6130164;28;20718;-62
2021/01/31 10:58:36;;;;;;;12.43;11.03;;;;;;;7.15;38.97;100538.94;6137789;28;20227;-60
2021/01/31 11:01:56;;;;;;;12.27;11.00;;;;;;;5.86;43.89;100540.22;6136436;28;20325;-58
2021/01/31 11:05:17;;;;;;;12.83;11.07;;;;;;;5.45;43.96;100539.97;6138752;28;20239;-61
2021/01/31 11:08:39;;;;;;;13.07;11.67;;;;;;;5.17;44.95;100541.44;6138755;28;20894;-58
2021/01/31 11:11:59;;;;;;;17.50;12.27;;;;;;;7.32;40.01;100533.75;6139145;28;20275;-61
2021/01/31 11:15:19;;;;;;;12.90;10.87;;;;;;;9.11;35.91;100524.44;6131334;28;20322;-60
2021/01/31 11:18:40;;;;;;;16.20;12.07;;;;;;;10.69;33.21;100514.06;6142793;28;20585;-59
2021/01/31 11:22:00;;;;;;;13.17;11.47;;;;;;;11.73;30.46;100506.28;6138720;28;20554;-57
2021/01/31 11:25:21;;;;;;;15.60;12.40;;;;;;;10.92;30.97;100503.31;6133980;28;20250;-58
2021/01/31 11:28:42;;;;;;;12.10;10.90;;;;;;;13.48;27.80;100488.47;6141046;28;20318;-59
2021/01/31 11:32:03;;;;;;;13.80;11.67;;;;;;;9.07;33.97;100507.13;6138506;28;20231;-59
2021/01/31 11:35:24;;;;;;;11.37;10.17;;;;;;;10.72;31.41;100503.63;6143030;28;20230;-58
2021/01/31 11:38:44;;;;;;;10.77;9.67;;;;;;;10.97;30.19;100500.63;6140471;28;20648;-60
2021/01/31 11:42:06;;;;;;;11.10;10.00;;;;;;;6.49;38.84;100519.84;6136229;28;20239;-59
2021/01/31 11:45:28;;;;;;;11.33;9.97;;;;;;;6.54;39.81;100512.09;6142998;28;20303;-60
2021/01/31 11:48:48;;;;;;;12.60;11.30;;;;;;;8.78;35.79;100495.25;6136575;28;20239;-58
2021/01/31 11:52:09;;;;;;;12.67;11.33;;;;;;;13.50;27.96;100481.44;6138876;28;20243;-58
2021/01/31 11:55:29;;;;;;;11.60;10.03;;;;;;;14.76;25.62;100477.81;6141657;28;20231;-61
2021/01/31 11:58:51;;;;;;;12.20;11.00;;;;;;;15.30;24.46;100472.59;6137446;28;20326;-59
2021/01/31 12:02:11;;;;;;;11.60;10.07;;;;;;;17.37;21.03;100469.09;6135407;28;20642;-61
2021/01/31 12:05:32;;;;;;;10.77;9.70;;;;;;;15.70;23.96;100471.19;6137795;28;20235;-60
2021/01/31 12:08:52;;;;;;;11.02;9.80;;;;;;;16.86;22.53;100460.66;6136536;28;20234;-59
2021/01/31 12:12:13;;;;;;;12.18;10.95;;;;;;;19.37;20.12;100456.28;6140099;28;20636;-59
2021/01/31 12:15:34;;;;;;;11.15;10.07;;;;;;;21.17;18.09;100446.41;6140678;28;20231;-61
2021/01/31 12:18:54;;;;;;;12.82;10.70;;;;;;;20.65;18.93;100448.50;6140338;28;20234;-61
2021/01/31 12:22:15;;;;;;;9.88;8.88;;;;;;;21.35;17.15;100440.03;6131687;28;20235;-60
2021/01/31 12:25:35;;;;;;;9.68;8.77;;;;;;;21.57;16.61;100439.59;6136271;28;20227;-60
2021/01/31 12:28:55;;;;;;;10.43;9.48;;;;;;;20.35;17.38;100439.63;6138504;28;20298;-61
2021/01/31 12:32:17;;;;;;;9.27;8.40;;;;;;;18.33;19.24;100433.25;6136298;28;20238;-61
2021/01/31 12:35:38;;;;;;;9.20;8.40;;;;;;;17.32;21.06;100436.84;6143379;28;20231;-60
2021/01/31 12:38:58;;;;;;;10.35;9.35;;;;;;;19.52;19.37;100425.56;6124756;28;20231;-59
2021/01/31 12:42:19;;;;;;;10.00;9.10;;;;;;;14.54;23.70;100440.94;6133303;28;20580;-59
2021/01/31 12:45:39;;;;;;;9.90;9.00;;;;;;;10.83;28.19;100433.97;6138872;28;20317;-59
2021/01/31 12:49:01;;;;;;;10.07;9.07;;;;;;;12.28;27.71;100436.47;6138696;28;20639;-60
2021/01/31 12:52:21;;;;;;;8.77;7.87;;;;;;;12.51;26.56;100429.88;6136603;28;20326;-61
2021/01/31 12:55:42;;;;;;;9.83;8.83;;;;;;;10.39;29.77;100440.72;6135652;28;20478;-60
2021/01/31 12:59:02;;;;;;;8.63;7.80;;;;;;;11.60;28.39;100427.38;6135882;28;20235;-60
2021/01/31 13:02:22;;;;;;;11.33;9.97;;;;;;;10.67;29.38;100421.22;6128664;28;20231;-60
2021/01/31 13:05:43;;;;;;;10.00;9.03;;;;;;;9.48;31.71;100420.16;6125466;28;20637;-61
2021/01/31 13:09:04;;;;;;;10.77;9.67;;;;;;;9.62;31.77;100410.47;6121794;28;20235;-62
2021/01/31 13:12:25;;;;;;;10.40;9.00;;;;;;;7.62;35.15;100424.03;6128183;28;20259;-59
2021/01/31 13:15:45;;;;;;;10.57;9.47;;;;;;;7.28;36.35;100408.56;6138140;28;20235;-60
2021/01/31 13:19:05;;;;;;;11.37;10.17;;;;;;;7.80;35.18;100402.34;6141148;28;20251;-59
2021/01/31 13:22:27;;;;;;;13.67;12.37;;;;;;;8.24;35.73;100406.47;6138921;28;20246;-59
2021/01/31 13:25:47;;;;;;;12.17;10.27;;;;;;;7.94;35.44;100404.88;6143205;28;20231;-59
2021/01/31 13:29:08;;;;;;;11.93;10.77;;;;;;;7.66;36.64;100400.69;6143825;28;20278;-58
2021/01/31 13:32:29;;;;;;;13.33;11.93;;;;;;;7.99;36.68;100392.78;6137514;28;20473;-58
2021/01/31 13:35:49;;;;;;;12.03;10.83;;;;;;;7.53;37.84;100398.16;6139885;28;20239;-58
2021/01/31 13:39:11;;;;;;;13.03;10.60;;;;;;;5.94;40.21;100394.66;6129364;28;20675;-63
2021/01/31 13:42:31;;;;;;;14.13;12.53;;;;;;;6.45;39.96;100383.56;6129308;28;20235;-60
2021/01/31 13:45:52;;;;;;;13.00;11.33;;;;;;;7.92;37.18;100378.97;6130736;28;20235;-59
2021/01/31 13:49:13;;;;;;;12.57;11.33;;;;;;;8.78;35.70;100374.94;6140604;28;20227;-61
2021/01/31 13:52:33;;;;;;;13.17;11.63;;;;;;;9.63;34.12;100367.13;6133779;28;20270;-63
2021/01/31 13:55:55;;;;;;;12.93;11.63;;;;;;;7.13;37.73;100373.19;6144174;28;20301;-63
2021/01/31 13:59:16;;;;;;;14.00;11.20;;;;;;;7.82;37.51;100372.97;6131533;28;20242;-65
2021/01/31 14:02:38;;;;;;;12.00;10.77;;;;;;;7.29;38.30;100368.84;6135169;28;20243;-64
2021/01/31 14:05:58;;;;;;;13.23;11.50;;;;;;;6.10;39.79;100373.19;6132752;28;20255;-64
2021/01/31 14:09:19;;;;;;;13.03;11.73;;;;;;;6.45;40.12;100367.19;6126548;28;20235;-63
2021/01/31 14:12:40;;;;;;;15.43;13.83;;;;;;;6.41;39.98;100368.91;6137734;28;20330;-63
2021/01/31 14:16:01;;;;;;;14.53;11.70;;;;;;;6.28;40.85;100359.41;6143079;28;20235;-64
2021/01/31 14:19:21;;;;;;;13.80;12.30;;;;;;;6.86;40.35;100356.84;6144072;28;20609;-65
2021/01/31 14:22:42;;;;;;;14.10;10.60;;;;;;;7.46;39.25;100353.22;6137224;28;20262;-63
2021/01/31 14:26:03;;;;;;;11.93;10.33;;;;;;;5.78;41.32;100357.53;6139806;28;20223;-63
2021/01/31 14:29:24;;;;;;;11.67;10.33;;;;;;;5.71;41.88;100354.94;6139687;28;20258;-64
2021/01/31 14:32:44;;;;;;;13.37;10.93;;;;;;;5.66;42.62;100354.09;6140733;28;20243;-64
2021/01/31 14:36:05;;;;;;;14.27;11.30;;;;;;;5.46;43.09;100351.41;6130530;28;20254;-64
2021/01/31 14:39:26;;;;;;;11.63;10.43;;;;;;;5.64;42.27;100342.00;6139968;28;20507;-64
2021/01/31 14:42:48;;;;;;;12.47;10.80;;;;;;;5.99;42.10;100334.41;6141274;28;20255;-64
2021/01/31 14:46:09;;;;;;;13.10;11.77;;;;;;;6.14;41.33;100330.97;6139330;28;20238;-64
2021/01/31 14:49:30;;;;;;;12.33;11.03;;;;;;;6.27;41.18;100322.34;6136219;28;20329;-64
2021/01/31 14:52:50;;;;;;;11.03;9.93;;;;;;;5.47;42.24;100321.28;6141334;28;21056;-64
2021/01/31 14:56:11;;;;;;;12.87;11.30;;;;;;;5.82;41.65;100311.06;6136959;28;20243;-63
2021/01/31 14:59:31;;;;;;;11.97;10.77;;;;;;;5.66;42.20;100302.41;6139793;28;20235;-64
2021/01/31 15:02:52;;;;;;;11.50;10.30;;;;;;;5.31;42.73;100305.75;6132259;28;20353;-62
2021/01/31 15:06:14;;;;;;;13.90;10.17;;;;;;;4.99;43.43;100305.56;6139112;28;20437;-64
2021/01/31 15:09:36;;;;;;;12.33;10.23;;;;;;;4.85;43.65;100309.81;6141787;28;20534;-64
2021/01/31 15:12:57;;;;;;;13.37;9.20;;;;;;;5.07;43.50;100303.88;6140821;28;20239;-65
2021/01/31 15:16:17;;;;;;;13.07;9.80;;;;;;;5.08;43.24;100295.31;6136810;28;20227;-64
2021/01/31 15:19:39;;;;;;;11.77;9.77;;;;;;;4.70;44.09;100305.41;6147750;28;20231;-64
2021/01/31 15:22:59;;;;;;;12.93;11.23;;;;;;;4.43;44.83;100286.28;6137081;28;20721;-64
2021/01/31 15:26:20;;;;;;;10.57;9.40;;;;;;;4.19;44.56;100281.81;6134706;28;20594;-64
2021/01/31 15:29:41;;;;;;;10.77;9.67;;;;;;;4.25;45.27;100291.31;6133527;28;20234;-64
2021/01/31 15:33:01;;;;;;;10.87;9.63;;;;;;;3.84;46.10;100300.38;6135246;28;20323;-63
2021/01/31 15:36:23;;;;;;;13.23;10.37;;;;;;;3.60;46.45;100298.41;6139579;28;20235;-64